Time;durP1;ratioP1;P1;durP2;ratioP2;P2;SDS_P1;SDS_P2;PMS_P1;PMS_P2;Temp;Humidity;BMP_temperature;BMP_pressure;BME280_temperature;BME280_humidity;BME280_pressure;Samples;Min_cycle;Max_cycle;Signal;HPM_P1;HPM_P2
2022/04/04 00:01:24;;;;;;;9.70;3.30;;;;;;;-0.49;68.32;99385.25;103512;1300;24426;-28
2022/04/04 00:03:50;;;;;;;12.10;4.50;;;;;;;-0.44;68.26;99384.79;103523;1300;24248;-28
2022/04/04 00:06:16;;;;;;;7.60;4.20;;;;;;;-0.60;68.88;99383.13;103607;1300;22727;-30
2022/04/04 00:08:41;;;;;;;7.10;3.20;;;;;;;-0.58;68.80;99382.76;103433;1300;24256;-26
2022/04/04 00:11:07;;;;;;;6.30;3.30;;;;;;;-0.68;69.24;99385.52;103563;1300;25906;-29
2022/04/04 00:13:33;;;;;;;8.00;3.60;;;;;;;-0.83;69.79;99383.77;103516;1300;23775;-28
2022/04/04 00:15:59;;;;;;;8.30;3.90;;;;;;;-0.81;69.82;99379.91;103550;1300;24433;-29
2022/04/04 00:18:25;;;;;;;5.10;2.70;;;;;;;-0.68;69.27;99378.73;103576;1300;22632;-29
2022/04/04 00:20:50;;;;;;;7.60;4.60;;;;;;;-0.65;69.11;99377.20;103581;1300;24372;-27
2022/04/04 00:23:17;;;;;;;9.50;4.20;;;;;;;-0.49;69.11;99375.34;103542;1300;24251;-27
2022/04/04 00:25:43;;;;;;;10.40;3.40;;;;;;;-0.63;69.05;99375.64;103576;1300;24363;-28
2022/04/04 00:28:09;;;;;;;4.40;3.00;;;;;;;-0.59;69.00;99370.23;103524;1300;24217;-29
2022/04/04 00:30:36;;;;;;;3.90;2.80;;;;;;;-0.65;69.16;99371.05;103572;1300;24254;-26
2022/04/04 00:33:03;;;;;;;9.40;2.10;;;;;;;-0.26;67.57;99363.79;103401;1302;24030;-29
2022/04/04 00:35:29;;;;;;;7.00;4.70;;;;;;;-0.31;67.74;99360.16;103606;1300;24358;-28
2022/04/04 00:37:55;;;;;;;9.60;4.70;;;;;;;-0.50;68.35;99360.68;103522;1300;24195;-28
2022/04/04 00:40:21;;;;;;;10.30;4.00;;;;;;;-0.44;67.99;99364.92;103566;1300;24000;-28
2022/04/04 00:42:47;;;;;;;4.40;2.30;;;;;;;-0.56;67.96;99363.26;103541;1300;22655;-25
2022/04/04 00:45:12;;;;;;;7.90;4.10;;;;;;;-0.84;69.38;99361.52;103516;1300;22509;-30
2022/04/04 00:47:38;;;;;;;7.40;3.20;;;;;;;-0.67;68.53;99362.10;103573;1300;23642;-28
2022/04/04 00:50:05;;;;;;;7.90;4.10;;;;;;;-0.81;68.73;99357.09;103543;1299;24202;-25
2022/04/04 00:52:30;;;;;;;5.50;2.60;;;;;;;-0.92;68.81;99353.06;103560;1300;24238;-29
2022/04/04 00:54:56;;;;;;;10.20;3.30;;;;;;;-1.01;69.16;99349.25;103496;1300;24289;-30
2022/04/04 00:57:22;;;;;;;5.30;2.90;;;;;;;-1.06;69.42;99350.45;103587;1300;22502;-27
2022/04/04 00:59:48;;;;;;;13.30;3.60;;;;;;;-1.13;69.84;99348.63;103576;1300;22641;-29
2022/04/04 01:02:13;;;;;;;6.60;3.20;;;;;;;-1.41;71.00;99344.88;103543;1300;24305;-25
2022/04/04 01:04:39;;;;;;;6.90;3.10;;;;;;;-1.49;71.63;99344.77;103519;1301;24210;-27
2022/04/04 01:07:05;;;;;;;7.60;3.00;;;;;;;-1.12;70.59;99339.39;103574;1300;24368;-25
2022/04/04 01:09:31;;;;;;;5.00;2.60;;;;;;;-1.16;70.60;99341.77;103313;1302;24382;-26
2022/04/04 01:12:02;;;;;;;6.10;3.00;;;;;;;-1.07;70.34;99341.20;103508;1300;25869;-27
2022/04/04 01:14:28;;;;;;;8.90;3.10;;;;;;;-0.82;69.60;99338.90;103549;1300;22872;-29
2022/04/04 01:16:54;;;;;;;6.50;2.70;;;;;;;-0.90;69.09;99340.39;103552;1300;24279;-26
2022/04/04 01:19:19;;;;;;;6.30;3.10;;;;;;;-0.88;69.19;99340.80;103395;1301;24212;-25
2022/04/04 01:21:45;;;;;;;5.50;3.50;;;;;;;-0.95;69.46;99337.96;103574;1300;24398;-29
2022/04/04 01:24:15;;;;;;;11.30;2.40;;;;;;;-0.81;69.40;99335.78;103419;1302;24423;-28
2022/04/04 01:26:45;;;;;;;7.00;3.60;;;;;;;-0.53;68.40;99329.30;103524;1300;23650;-30
2022/04/04 01:29:11;;;;;;;5.50;2.40;;;;;;;-0.51;68.27;99323.11;103575;1300;24214;-30
2022/04/04 01:31:37;;;;;;;5.00;2.40;;;;;;;-0.72;69.19;99325.55;103577;1300;22631;-28
2022/04/04 01:34:03;;;;;;;3.50;2.30;;;;;;;-0.94;70.30;99318.54;103540;1300;24243;-30
2022/04/04 01:36:29;;;;;;;9.90;3.00;;;;;;;-0.64;68.78;99317.69;103491;1300;24253;-27
2022/04/04 01:38:54;;;;;;;4.60;2.00;;;;;;;-0.58;68.42;99312.83;103564;1300;24253;-29
2022/04/04 01:41:20;;;;;;;7.30;3.40;;;;;;;-0.73;68.74;99316.80;103461;1302;24249;-30
2022/04/04 01:43:46;;;;;;;5.30;2.90;;;;;;;-0.85;69.39;99311.90;103558;1300;24237;-29
2022/04/04 01:48:40;;;;;;;6.50;3.10;;;;;;;-0.48;68.36;99300.16;103564;1300;23788;-28
2022/04/04 01:51:06;;;;;;;6.30;2.60;;;;;;;-0.16;67.19;99296.41;103570;1300;24218;-26
2022/04/04 01:53:32;;;;;;;3.60;2.20;;;;;;;-0.40;67.71;99297.90;103597;1299;23027;-25
2022/04/04 01:56:01;;;;;;;5.90;2.60;;;;;;;-0.28;67.47;99292.70;103587;1300;24242;-27
2022/04/04 01:58:27;;;;;;;7.70;2.70;;;;;;;-0.21;67.01;99290.00;103535;1300;24219;-25
2022/04/04 02:00:56;;;;;;;8.50;2.80;;;;;;;-0.27;66.92;99290.86;103577;1300;22968;-28
2022/04/04 02:03:24;;;;;;;4.70;2.20;;;;;;;-0.47;67.61;99290.73;103616;1300;24215;-27
2022/04/04 02:05:50;;;;;;;5.70;3.10;;;;;;;-0.32;66.92;99290.40;103539;1300;25132;-25
2022/04/04 02:08:15;;;;;;;4.90;2.80;;;;;;;-0.60;67.95;99290.95;103552;1300;23787;-29
2022/04/04 02:10:41;;;;;;;4.30;2.40;;;;;;;-0.62;68.56;99290.64;103572;1300;24443;-29
2022/04/04 02:13:07;;;;;;;1.60;1.30;;;;;;;-0.88;69.34;99295.06;103285;1302;24212;-26
2022/04/04 02:15:32;;;;;;;6.30;2.90;;;;;;;-0.90;69.83;99293.99;103503;1302;24432;-29
2022/04/04 02:17:58;;;;;;;4.00;2.80;;;;;;;-1.10;70.80;99293.55;103528;1300;24294;-26
2022/04/04 02:20:24;;;;;;;2.90;2.40;;;;;;;-1.00;70.59;99291.30;103519;1300;24247;-26
2022/04/04 02:22:50;;;;;;;5.00;2.80;;;;;;;-0.72;69.74;99286.19;103541;1300;24313;-29
2022/04/04 02:25:15;;;;;;;2.20;2.00;;;;;;;-0.65;69.34;99284.67;103558;1300;24248;-29
2022/04/04 02:27:41;;;;;;;3.40;2.80;;;;;;;-0.51;68.82;99275.27;103514;1300;24254;-26
2022/04/04 02:30:07;;;;;;;6.60;3.60;;;;;;;-0.45;68.77;99275.80;103659;1300;22506;-25
2022/04/04 02:32:33;;;;;;;6.10;3.40;;;;;;;-0.78;69.71;99278.98;103573;1300;24248;-27
2022/04/04 02:34:59;;;;;;;4.20;3.10;;;;;;;-1.07;71.00;99278.00;103576;1300;24247;-29
2022/04/04 02:37:25;;;;;;;5.60;2.30;;;;;;;-1.18;71.72;99278.85;103548;1300;23537;-28
2022/04/04 02:39:50;;;;;;;4.30;3.10;;;;;;;-1.10;71.85;99274.74;103520;1300;23753;-25
2022/04/04 02:42:16;;;;;;;3.70;2.30;;;;;;;-0.82;70.57;99273.52;103512;1300;24315;-28
2022/04/04 02:44:42;;;;;;;4.30;1.80;;;;;;;-0.75;70.21;99271.98;103566;1300;24283;-26
2022/04/04 02:47:08;;;;;;;5.10;3.30;;;;;;;-0.69;70.52;99264.98;103527;1300;23817;-25
2022/04/04 02:49:34;;;;;;;22.20;3.10;;;;;;;-0.40;69.62;99263.61;103501;1300;24256;-25
2022/04/04 02:51:59;;;;;;;4.10;2.80;;;;;;;-0.46;69.64;99264.72;103590;1300;24291;-26
2022/04/04 02:54:25;;;;;;;4.80;3.30;;;;;;;-0.52;70.07;99267.26;103496;1300;23948;-28
2022/04/04 02:56:51;;;;;;;6.60;3.80;;;;;;;-0.59;70.81;99269.98;103577;1300;24249;-27
2022/04/04 02:59:16;;;;;;;5.50;4.30;;;;;;;-0.29;69.47;99263.16;103464;1300;24235;-30
2022/04/04 03:01:48;;;;;;;5.10;4.20;;;;;;;-0.55;70.46;99270.36;103610;1300;24972;-27
2022/04/04 03:04:15;;;;;;;4.30;2.80;;;;;;;-0.90;71.91;99274.15;103548;1300;22893;-30
2022/04/04 03:06:41;;;;;;;3.40;2.80;;;;;;;-0.64;71.39;99266.68;103440;1302;25091;-27
2022/04/04 03:09:06;;;;;;;6.30;4.10;;;;;;;-0.40;70.33;99268.14;103577;1300;24284;-26
2022/04/04 03:11:32;;;;;;;6.10;3.50;;;;;;;-0.45;70.07;99264.73;103481;1300;24260;-29
2022/04/04 03:13:59;;;;;;;3.80;2.80;;;;;;;-0.29;69.55;99260.61;103585;1300;24296;-26
2022/04/04 03:16:24;;;;;;;5.60;3.60;;;;;;;-0.82;71.40;99271.00;103513;1300;22637;-30
2022/04/04 03:18:51;;;;;;;3.30;2.70;;;;;;;-0.56;71.07;99260.23;103301;1300;24249;-27
2022/04/04 03:21:17;;;;;;;4.40;3.80;;;;;;;-0.32;70.33;99253.04;103478;1300;24456;-29
2022/04/04 03:23:43;;;;;;;6.30;3.50;;;;;;;-0.48;70.24;99256.89;103596;1300;24315;-27
2022/04/04 03:26:09;;;;;;;5.60;3.60;;;;;;;-0.16;69.37;99253.29;103519;1300;24195;-25
2022/04/04 03:28:36;;;;;;;8.90;3.90;;;;;;;0.03;68.40;99245.47;103552;1300;24440;-28
2022/04/04 03:31:04;;;;;;;5.20;3.60;;;;;;;-0.14;68.81;99248.40;103529;1300;24201;-28
2022/04/04 03:33:31;;;;;;;3.90;3.10;;;;;;;-0.57;70.54;99259.06;103580;1300;22630;-29
2022/04/04 03:35:58;;;;;;;3.10;2.70;;;;;;;-0.16;69.17;99245.36;103552;1300;24425;-25
2022/04/04 03:38:25;;;;;;;3.30;2.90;;;;;;;-0.40;69.40;99247.97;103548;1300;24218;-28
2022/04/04 03:40:51;;;;;;;4.20;2.50;;;;;;;-0.07;68.65;99239.15;103585;1300;24267;-26
2022/04/04 03:43:17;;;;;;;5.40;3.10;;;;;;;-0.44;69.92;99247.27;103542;1300;24301;-27
2022/04/04 03:45:43;;;;;;;5.10;3.10;;;;;;;-0.65;71.19;99247.42;103557;1300;22726;-26
2022/04/04 03:48:09;;;;;;;8.70;3.80;;;;;;;-0.37;70.23;99237.71;103638;1300;23586;-28
2022/04/04 03:50:35;;;;;;;7.90;4.40;;;;;;;-0.20;69.10;99237.48;103555;1302;24231;-29
2022/04/04 03:53:01;;;;;;;4.40;3.30;;;;;;;-0.41;69.74;99242.24;103568;1300;24243;-25
2022/04/04 03:55:30;;;;;;;7.20;4.90;;;;;;;-0.18;69.12;99232.50;103617;1300;24360;-25
2022/04/04 03:57:56;;;;;;;5.80;3.60;;;;;;;-0.34;69.33;99229.66;103532;1300;24302;-27
2022/04/04 04:00:22;;;;;;;4.20;2.80;;;;;;;-0.28;69.27;99227.98;103549;1300;22499;-31
2022/04/04 04:02:48;;;;;;;5.70;4.00;;;;;;;-0.41;69.50;99238.00;103555;1300;24237;-26
2022/04/04 04:05:14;;;;;;;3.20;2.90;;;;;;;-0.15;68.78;99227.34;103537;1300;24041;-28
2022/04/04 04:07:40;;;;;;;6.30;4.40;;;;;;;-0.08;68.24;99223.73;103545;1300;24213;-26
2022/04/04 04:10:06;;;;;;;5.60;4.70;;;;;;;-0.19;68.47;99223.42;103543;1300;22501;-29
2022/04/04 04:12:32;;;;;;;10.80;4.60;;;;;;;0.08;67.81;99221.65;103283;1300;458327;-26
2022/04/04 04:14:58;;;;;;;3.20;2.90;;;;;;;0.08;67.16;99222.18;103585;1300;23802;-26
2022/04/04 04:17:24;;;;;;;4.90;2.90;;;;;;;-0.45;69.00;99232.20;103572;1300;24371;-26
2022/04/04 04:22:21;;;;;;;4.40;3.10;;;;;;;-0.63;70.37;99228.63;103558;1300;24190;-26
2022/04/04 04:24:47;;;;;;;4.80;3.70;;;;;;;-0.47;69.69;99231.16;103608;1300;24371;-26
2022/04/04 04:27:13;;;;;;;5.60;3.60;;;;;;;-0.51;70.06;99224.45;103538;1300;24413;-29
2022/04/04 04:29:39;;;;;;;3.60;2.20;;;;;;;-0.68;70.81;99230.15;103497;1300;24252;-26
2022/04/04 04:32:06;;;;;;;5.30;4.30;;;;;;;-0.51;69.86;99228.68;103456;1300;24311;-25
2022/04/04 04:34:34;;;;;;;8.00;4.40;;;;;;;-0.21;68.68;99228.09;103601;1300;25232;-26
2022/04/04 04:37:00;;;;;;;3.00;2.60;;;;;;;-0.44;69.70;99231.77;103539;1300;24237;-29
2022/04/04 04:39:26;;;;;;;4.70;3.20;;;;;;;-0.19;68.54;99226.80;103534;1300;24256;-26
2022/04/04 04:41:52;;;;;;;9.20;4.40;;;;;;;-0.34;69.22;99227.20;103528;1300;24221;-26
2022/04/04 04:44:19;;;;;;;5.30;3.90;;;;;;;-0.28;69.10;99223.19;103390;1302;24002;-28
2022/04/04 04:46:44;;;;;;;4.50;3.60;;;;;;;-0.36;69.33;99231.11;103526;1300;24228;-26
2022/04/04 04:49:10;;;;;;;3.60;2.50;;;;;;;-0.24;68.97;99233.02;103572;1300;24366;-26
2022/04/04 04:51:36;;;;;;;5.40;3.30;;;;;;;-0.23;68.93;99238.04;103592;1300;24312;-25
2022/04/04 04:54:03;;;;;;;3.20;2.60;;;;;;;-0.29;69.56;99245.80;103608;1300;24392;-28
2022/04/04 04:56:30;;;;;;;10.70;3.80;;;;;;;-0.41;71.33;99251.05;103512;1300;23708;-29
2022/04/04 04:58:55;;;;;;;5.40;2.70;;;;;;;-0.37;73.44;99257.55;103575;1300;24213;-31
2022/04/04 05:01:21;;;;;;;6.60;2.60;;;;;;;-0.40;76.40;99258.16;103534;1300;24356;-27
2022/04/04 05:03:49;;;;;;;5.40;3.80;;;;;;;-0.58;79.09;99260.20;103616;1300;22502;-28
2022/04/04 05:06:15;;;;;;;11.10;3.20;;;;;;;-0.96;82.70;99268.51;103525;1300;23610;-28
2022/04/04 05:08:40;;;;;;;5.20;3.60;;;;;;;-1.07;84.74;99262.73;103399;1301;24268;-29
2022/04/04 05:11:07;;;;;;;3.90;3.30;;;;;;;-1.33;86.89;99265.88;103551;1300;22603;-26
2022/04/04 05:13:32;;;;;;;7.00;3.10;;;;;;;-1.18;87.46;99266.45;103596;1300;24410;-25
2022/04/04 05:15:58;;;;;;;3.80;3.40;;;;;;;-1.28;87.92;99266.52;103507;1300;24369;-27
2022/04/04 05:18:25;;;;;;;3.30;2.60;;;;;;;-1.48;89.67;99261.48;103599;1300;24226;-26
2022/04/04 05:20:51;;;;;;;5.20;3.50;;;;;;;-1.43;90.61;99261.39;103645;1300;22807;-25
2022/04/04 05:23:16;;;;;;;8.00;4.40;;;;;;;-1.54;91.52;99256.02;103540;1300;24269;-26
2022/04/04 05:25:43;;;;;;;4.40;3.10;;;;;;;-1.52;91.90;99254.45;103618;1300;22500;-29
2022/04/04 05:28:10;;;;;;;7.30;3.60;;;;;;;-1.37;91.68;99252.02;103531;1300;24217;-29
2022/04/04 05:30:36;;;;;;;7.40;3.90;;;;;;;-1.31;91.67;99250.13;103570;1300;23608;-27
2022/04/04 05:33:02;;;;;;;6.60;4.20;;;;;;;-1.24;91.62;99248.67;103507;1300;24658;-27
2022/04/04 05:35:28;;;;;;;5.30;3.80;;;;;;;-1.13;91.88;99250.56;103434;1302;24420;-28
2022/04/04 05:37:54;;;;;;;5.50;4.50;;;;;;;-1.00;91.04;99245.98;103571;1300;24317;-28
2022/04/04 05:40:22;;;;;;;7.00;5.60;;;;;;;-0.90;89.98;99239.90;103484;1300;24359;-28
2022/04/04 05:42:49;;;;;;;4.90;4.30;;;;;;;-0.94;89.99;99244.75;103487;1300;24241;-31
2022/04/04 05:45:15;;;;;;;6.60;4.10;;;;;;;-0.83;89.52;99241.78;103618;1300;24218;-26
2022/04/04 05:47:41;;;;;;;5.60;4.00;;;;;;;-0.85;88.85;99243.66;103575;1300;22496;-26
2022/04/04 05:50:07;;;;;;;12.20;6.70;;;;;;;-0.80;88.62;99245.14;103622;1300;24348;-25
2022/04/04 05:52:35;;;;;;;7.70;5.10;;;;;;;-0.90;88.50;99242.67;103597;1300;25137;-25
2022/04/04 05:55:02;;;;;;;6.90;5.90;;;;;;;-0.95;88.76;99240.45;103609;1300;22657;-28
2022/04/04 05:57:36;;;;;;;5.80;3.70;;;;;;;-0.94;88.49;99248.83;103396;1301;24338;-25
2022/04/04 06:00:03;;;;;;;7.30;4.40;;;;;;;-0.69;87.45;99243.77;103487;1300;24243;-28
2022/04/04 06:02:29;;;;;;;6.00;4.50;;;;;;;-0.77;85.95;99244.23;103630;1300;24214;-29
2022/04/04 06:04:56;;;;;;;6.60;4.10;;;;;;;-0.67;85.52;99240.05;103525;1300;24366;-29
2022/04/04 06:07:21;;;;;;;6.50;3.10;;;;;;;-0.68;84.43;99243.27;103571;1300;24285;-29
2022/04/04 06:09:47;;;;;;;7.10;4.90;;;;;;;-0.67;83.24;99240.70;103556;1300;22485;-27
2022/04/04 06:12:13;;;;;;;5.10;4.10;;;;;;;-0.63;81.77;99242.86;103561;1299;22554;-29
2022/04/04 06:14:40;;;;;;;4.50;3.90;;;;;;;-0.51;81.62;99238.66;103438;1302;24222;-28
2022/04/04 06:17:06;;;;;;;5.80;4.60;;;;;;;-0.20;80.76;99240.44;103541;1300;24734;-25
2022/04/04 06:19:34;;;;;;;10.40;5.60;;;;;;;0.20;79.12;99237.20;103260;1302;24166;-28
2022/04/04 06:22:00;;;;;;;6.20;3.90;;;;;;;0.53;76.61;99238.30;103609;1300;22596;-28
2022/04/04 06:24:27;;;;;;;6.70;4.30;;;;;;;0.82;75.97;99237.80;103557;1300;24242;-30
2022/04/04 06:26:52;;;;;;;3.70;2.90;;;;;;;1.36;72.78;99227.98;103564;1300;24296;-24
2022/04/04 06:29:18;;;;;;;6.90;4.10;;;;;;;1.29;71.54;99228.58;103511;1300;24300;-30
2022/04/04 06:31:44;;;;;;;3.70;3.00;;;;;;;1.50;70.76;99231.75;103488;1300;24307;-24
2022/04/04 06:34:10;;;;;;;11.30;3.60;;;;;;;1.59;70.53;99230.52;103517;1299;24432;-30
2022/04/04 06:36:38;;;;;;;3.90;3.00;;;;;;;1.68;69.67;99229.74;103665;1300;24353;-28
2022/04/04 06:39:05;;;;;;;5.90;3.30;;;;;;;1.81;69.02;99231.31;103507;1300;24366;-28
2022/04/04 06:41:31;;;;;;;5.60;3.00;;;;;;;1.93;67.94;99234.39;103632;1300;24222;-30
2022/04/04 06:43:58;;;;;;;5.30;3.00;;;;;;;1.93;67.96;99232.24;103579;1300;22504;-28
2022/04/04 06:46:25;;;;;;;3.30;2.80;;;;;;;1.72;67.83;99239.27;103407;1302;24242;-30
2022/04/04 06:48:51;;;;;;;4.90;3.40;;;;;;;1.98;66.45;99238.50;103576;1300;22811;-30
2022/04/04 06:51:18;;;;;;;4.50;3.20;;;;;;;1.88;66.60;99240.46;103511;1300;24237;-23
2022/04/04 06:53:45;;;;;;;3.30;2.80;;;;;;;2.06;67.11;99236.52;103565;1300;24240;-30
2022/04/04 06:56:11;;;;;;;2.00;1.80;;;;;;;2.01;66.63;99239.27;103666;1300;23614;-27
2022/04/04 06:58:37;;;;;;;5.30;2.90;;;;;;;1.95;65.94;99235.64;103567;1300;24225;-27
2022/04/04 07:01:03;;;;;;;8.60;3.80;;;;;;;2.24;65.22;99238.30;103533;1300;22512;-24
2022/04/04 07:03:29;;;;;;;7.60;3.60;;;;;;;2.23;64.99;99236.89;103581;1300;24352;-29
2022/04/04 07:05:54;;;;;;;3.30;2.80;;;;;;;2.27;65.99;99237.36;103578;1300;24251;-28
2022/04/04 07:08:21;;;;;;;5.70;3.30;;;;;;;2.28;66.89;99232.45;103539;1300;24212;-30
2022/04/04 07:10:47;;;;;;;6.00;3.30;;;;;;;2.69;65.36;99230.43;103565;1300;24414;-28
2022/04/04 07:13:15;;;;;;;3.80;2.60;;;;;;;2.72;66.09;99233.85;103394;1302;24289;-25
2022/04/04 07:15:41;;;;;;;4.40;3.00;;;;;;;2.80;65.98;99236.12;103425;1302;24350;-24
2022/04/04 07:18:08;;;;;;;3.80;3.00;;;;;;;3.16;64.43;99230.34;103378;1300;24192;-30
2022/04/04 07:20:34;;;;;;;6.20;3.20;;;;;;;3.28;64.28;99228.84;103596;1300;22919;-26
2022/04/04 07:23:00;;;;;;;4.80;3.50;;;;;;;3.39;63.88;99227.00;103465;1300;24203;-26
2022/04/04 07:25:25;;;;;;;6.50;3.80;;;;;;;3.31;64.56;99228.91;103511;1300;24387;-24
2022/04/04 07:27:51;;;;;;;3.70;2.70;;;;;;;3.37;64.04;99230.58;103520;1300;24240;-28
2022/04/04 07:30:18;;;;;;;3.40;2.80;;;;;;;3.58;65.43;99223.51;103490;1302;25000;-28
2022/04/04 07:32:44;;;;;;;3.10;2.40;;;;;;;3.90;63.08;99210.98;103574;1300;24464;-28
2022/04/04 07:35:11;;;;;;;3.90;2.60;;;;;;;4.01;62.42;99211.86;103541;1300;24199;-28
2022/04/04 07:37:39;;;;;;;6.60;2.80;;;;;;;4.02;62.14;99210.61;103582;1300;24240;-25
2022/04/04 07:40:06;;;;;;;3.00;2.50;;;;;;;4.36;61.46;99203.33;103531;1300;24291;-24
2022/04/04 07:42:32;;;;;;;4.40;2.40;;;;;;;4.05;62.49;99208.20;103612;1300;24433;-23
2022/04/04 07:44:58;;;;;;;5.70;2.90;;;;;;;4.63;61.91;99204.09;103624;1300;22824;-28
2022/04/04 07:47:24;;;;;;;4.50;2.20;;;;;;;4.86;61.86;99193.95;103501;1300;24301;-25
2022/04/04 07:49:51;;;;;;;3.40;2.40;;;;;;;5.01;61.31;99197.16;103450;1300;23873;-25
2022/04/04 07:52:16;;;;;;;3.60;2.80;;;;;;;4.98;61.17;99195.16;103551;1300;24217;-31
2022/04/04 07:54:42;;;;;;;2.90;2.30;;;;;;;5.01;60.81;99191.45;103606;1300;24325;-28
2022/04/04 07:57:08;;;;;;;4.20;3.40;;;;;;;5.41;60.11;99185.65;103577;1300;24324;-25
2022/04/04 07:59:33;;;;;;;4.10;2.60;;;;;;;5.50;58.87;99188.94;103516;1300;24419;-29
2022/04/04 08:01:59;;;;;;;5.00;2.30;;;;;;;5.35;61.19;99186.66;103394;1302;24213;-28
2022/04/04 08:04:25;;;;;;;5.00;2.60;;;;;;;5.63;60.83;99181.62;103477;1300;23645;-28
2022/04/04 08:06:50;;;;;;;2.90;2.30;;;;;;;5.66;60.64;99183.79;103532;1300;24249;-25
2022/04/04 08:09:16;;;;;;;5.90;2.90;;;;;;;5.85;59.66;99175.54;103531;1300;23969;-28
2022/04/04 08:11:42;;;;;;;3.00;2.00;;;;;;;5.71;59.37;99171.17;103480;1301;24273;-25
2022/04/04 08:14:08;;;;;;;5.00;3.30;;;;;;;5.94;58.22;99173.02;103615;1300;25331;-28
2022/04/04 08:16:35;;;;;;;4.00;3.00;;;;;;;5.77;57.82;99167.34;103589;1300;24451;-27
2022/04/04 08:19:01;;;;;;;4.80;2.70;;;;;;;5.92;57.21;99165.32;103586;1299;24947;-25
2022/04/04 08:21:27;;;;;;;3.10;2.80;;;;;;;6.11;56.64;99168.54;103524;1300;23829;-26
2022/04/04 08:23:52;;;;;;;4.90;2.70;;;;;;;6.35;55.76;99165.45;103568;1300;24215;-28
2022/04/04 08:26:18;;;;;;;3.10;2.00;;;;;;;6.40;55.43;99163.55;103522;1300;23649;-25
2022/04/04 08:28:44;;;;;;;1.40;0.90;;;;;;;5.91;56.65;99159.20;103516;1300;24296;-24
2022/04/04 08:31:10;;;;;;;3.40;2.40;;;;;;;6.20;57.51;99152.19;103533;1300;24373;-25
2022/04/04 08:33:37;;;;;;;1.70;1.50;;;;;;;6.57;56.03;99157.31;103651;1300;24219;-28
2022/04/04 08:36:05;;;;;;;3.00;2.30;;;;;;;7.07;54.00;99152.48;103518;1300;26161;-25
2022/04/04 08:38:31;;;;;;;3.20;2.50;;;;;;;7.67;52.11;99145.09;103601;1300;22770;-29
2022/04/04 08:41:00;;;;;;;3.00;2.20;;;;;;;6.92;53.84;99150.00;103526;1300;24356;-25
2022/04/04 08:43:26;;;;;;;8.20;2.90;;;;;;;6.74;54.13;99157.94;103571;1300;24251;-25
2022/04/04 08:45:52;;;;;;;2.40;1.50;;;;;;;7.02;53.94;99155.31;103573;1300;24245;-27
2022/04/04 08:48:18;;;;;;;3.10;2.10;;;;;;;7.68;52.92;99150.38;103486;1302;24228;-25
2022/04/04 08:50:44;;;;;;;2.20;1.80;;;;;;;7.62;51.21;99148.46;103601;1300;24225;-25
2022/04/04 08:53:10;;;;;;;1.80;1.30;;;;;;;8.04;49.86;99134.98;103520;1300;24257;-25
2022/04/04 08:55:36;;;;;;;7.20;2.00;;;;;;;7.08;50.93;99136.25;103395;1302;24251;-28
2022/04/04 08:58:02;;;;;;;4.00;1.80;;;;;;;7.62;49.99;99133.42;103387;1300;24357;-29
2022/04/04 09:00:29;;;;;;;2.90;2.50;;;;;;;6.83;51.67;99136.73;103488;1300;24237;-28
2022/04/04 09:03:02;;;;;;;2.40;1.50;;;;;;;6.43;52.04;99135.29;103568;1300;24295;-28
2022/04/04 09:05:29;;;;;;;2.20;2.00;;;;;;;6.76;51.05;99124.95;103369;1302;25339;-28
2022/04/04 09:07:59;;;;;;;4.30;2.10;;;;;;;6.74;52.19;99118.80;103555;1300;24241;-24
2022/04/04 09:10:31;;;;;;;3.00;2.30;;;;;;;6.98;53.05;99111.45;103461;1302;24110;-25
2022/04/04 09:13:03;;;;;;;1.30;1.10;;;;;;;7.28;48.43;99096.91;103589;1300;24350;-25
2022/04/04 09:15:51;;;;;;;2.70;1.90;;;;;;;6.83;50.09;99096.70;103524;1300;24003;-28
2022/04/04 09:18:17;;;;;;;2.90;2.10;;;;;;;7.61;49.27;99091.89;103585;1300;24225;-29
2022/04/04 09:20:48;;;;;;;2.00;1.50;;;;;;;7.29;50.74;99090.85;103503;1302;24316;-25
2022/04/04 09:23:15;;;;;;;2.00;1.60;;;;;;;7.55;49.59;99085.85;103603;1300;24237;-28
2022/04/04 09:25:40;;;;;;;1.90;1.60;;;;;;;7.23;49.22;99084.84;103524;1301;24257;-25
2022/04/04 09:28:13;;;;;;;2.50;2.00;;;;;;;7.06;49.58;99082.02;103538;1300;24430;-27
2022/04/04 09:30:39;;;;;;;3.50;2.20;;;;;;;7.18;50.24;99071.77;103576;1300;24247;-29
2022/04/04 09:33:05;;;;;;;2.50;1.50;;;;;;;7.58;49.16;99066.19;103604;1300;24346;-28
2022/04/04 09:35:32;;;;;;;1.30;0.90;;;;;;;7.82;48.54;99060.41;103573;1300;24318;-27
2022/04/04 09:37:58;;;;;;;2.00;1.30;;;;;;;8.24;47.98;99053.19;103550;1300;25121;-28
2022/04/04 09:40:25;;;;;;;1.70;1.20;;;;;;;7.87;46.88;99043.14;103537;1300;24258;-31
2022/04/04 09:42:51;;;;;;;1.60;1.40;;;;;;;7.99;46.32;99040.56;103610;1300;24147;-27
2022/04/04 09:45:18;;;;;;;1.80;1.30;;;;;;;7.70;46.63;99044.79;103535;1300;24240;-25
2022/04/04 09:47:44;;;;;;;2.70;1.90;;;;;;;7.28;47.39;99038.70;103592;1301;24286;-31
2022/04/04 09:50:10;;;;;;;2.00;1.20;;;;;;;8.25;44.65;99026.44;103556;1300;24384;-28
2022/04/04 09:52:50;;;;;;;4.50;1.20;;;;;;;8.11;44.31;99025.52;103532;1300;24214;-28
2022/04/04 09:55:22;;;;;;;6.40;1.40;;;;;;;7.24;46.65;99016.20;103601;1300;24309;-27
2022/04/04 09:57:50;;;;;;;1.30;0.80;;;;;;;6.77;48.17;99023.59;103552;1300;22735;-29
2022/04/04 10:00:19;;;;;;;1.60;1.40;;;;;;;7.66;47.96;99024.84;103547;1300;22499;-28
2022/04/04 10:02:45;;;;;;;1.60;1.30;;;;;;;8.42;45.72;99017.20;103591;1300;22598;-29
2022/04/04 10:05:10;;;;;;;1.70;1.20;;;;;;;8.05;46.30;99012.17;103493;1302;24365;-26
2022/04/04 10:07:36;;;;;;;3.00;1.40;;;;;;;7.92;47.38;99008.23;103541;1300;24251;-29
2022/04/04 10:10:02;;;;;;;1.70;1.40;;;;;;;8.64;46.24;98996.79;103519;1300;24229;-26
2022/04/04 10:12:28;;;;;;;1.50;1.40;;;;;;;9.08;43.28;98996.59;103520;1300;23805;-29
2022/04/04 10:14:54;;;;;;;2.40;1.50;;;;;;;8.01;45.96;99007.83;103631;1300;24231;-29
2022/04/04 10:17:19;;;;;;;2.90;1.50;;;;;;;8.48;44.78;98988.89;103587;1300;24283;-25
2022/04/04 10:19:47;;;;;;;2.10;1.10;;;;;;;8.50;45.95;98989.84;103387;1302;22623;-25
2022/04/04 10:22:14;;;;;;;2.90;1.40;;;;;;;8.49;45.96;98982.96;103442;1301;24120;-25
2022/04/04 10:24:40;;;;;;;2.80;1.30;;;;;;;8.43;45.83;98980.20;103556;1300;24475;-29
2022/04/04 10:27:08;;;;;;;1.20;1.10;;;;;;;8.99;43.15;98979.86;103601;1300;24212;-29
2022/04/04 10:29:38;;;;;;;1.20;0.70;;;;;;;9.04;45.12;98975.08;103541;1300;24383;-29
2022/04/04 10:32:05;;;;;;;1.60;1.00;;;;;;;8.48;43.81;98978.40;103583;1300;22494;-25
2022/04/04 10:34:32;;;;;;;1.90;1.40;;;;;;;8.81;42.98;98969.80;103523;1300;24220;-28
2022/04/04 10:37:00;;;;;;;8.30;1.10;;;;;;;7.64;45.18;98962.52;103609;1300;24206;-25
2022/04/04 10:39:32;;;;;;;2.20;1.40;;;;;;;8.25;44.84;98961.37;103583;1300;24229;-28
2022/04/04 10:41:58;;;;;;;2.70;1.40;;;;;;;8.47;45.82;98962.28;103435;1300;22700;-28
2022/04/04 10:44:30;;;;;;;1.60;1.20;;;;;;;8.98;43.53;98943.75;103525;1300;24200;-25
2022/04/04 10:47:01;;;;;;;2.30;1.40;;;;;;;9.20;42.28;98943.67;103544;1302;24016;-31
2022/04/04 10:49:27;;;;;;;3.40;1.90;;;;;;;8.62;44.77;98948.56;103523;1302;25294;-29
2022/04/04 10:51:53;;;;;;;3.20;1.50;;;;;;;8.69;44.05;98948.45;103552;1300;24231;-26
2022/04/04 10:54:18;;;;;;;1.10;1.10;;;;;;;7.97;44.62;98944.73;103528;1302;24318;-29
2022/04/04 10:56:45;;;;;;;4.80;3.40;;;;;;;8.23;44.66;98945.02;103511;1300;24305;-25
2022/04/04 10:59:30;;;;;;;1.40;1.10;;;;;;;8.28;44.19;98944.64;103442;1302;25378;-29
2022/04/04 11:01:58;;;;;;;3.80;1.90;;;;;;;8.48;44.44;98931.05;103519;1300;24969;-29
2022/04/04 11:04:26;;;;;;;3.30;1.40;;;;;;;7.98;45.87;98931.86;103491;1302;23436;-28
2022/04/04 11:09:32;;;;;;;1.00;0.90;;;;;;;7.97;44.68;98901.72;103563;1300;24302;-25
2022/04/04 11:11:58;;;;;;;1.90;1.70;;;;;;;7.76;45.74;98918.60;103529;1300;24410;-25
2022/04/04 11:14:28;;;;;;;1.80;1.30;;;;;;;7.97;45.58;98907.41;103587;1301;23755;-28
2022/04/04 11:17:00;;;;;;;1.30;0.90;;;;;;;8.80;43.47;98906.17;103586;1300;24302;-29
2022/04/04 11:19:28;;;;;;;2.00;1.30;;;;;;;8.69;44.50;98899.40;103533;1302;24064;-25
2022/04/04 11:21:53;;;;;;;3.50;1.20;;;;;;;9.26;42.55;98895.39;103567;1301;24354;-25
2022/04/04 11:24:19;;;;;;;2.30;1.70;;;;;;;9.03;43.36;98896.48;103378;1302;23876;-25
2022/04/04 11:26:47;;;;;;;3.80;2.30;;;;;;;9.08;44.15;98896.22;103539;1300;24237;-28
2022/04/04 11:29:19;;;;;;;1.60;1.40;;;;;;;9.35;44.25;98890.86;103524;1301;24250;-24
2022/04/04 11:31:48;;;;;;;2.10;1.50;;;;;;;9.94;42.52;98873.05;103559;1300;22864;-25
2022/04/04 11:34:14;;;;;;;1.60;1.00;;;;;;;9.87;42.84;98868.77;103596;1300;24320;-29